Time;durP1;ratioP1;P1;durP2;ratioP2;P2;SDS_P1;SDS_P2;PMS_P1;PMS_P2;Temp;Humidity;BMP_temperature;BMP_pressure;BME280_temperature;BME280_humidity;BME280_pressure;Samples;Min_cycle;Max_cycle;Signal;HPM_P1;HPM_P2
2021/01/08 00:00:08;;;;;;;5.95;4.57;;;;;;;3.06;85.98;99120.41;4992105;28;20233;-69
2021/01/08 00:02:35;;;;;;;5.53;4.25;;;;;;;3.00;86.46;99123.28;4992512;28;20199;-71
2021/01/08 00:05:01;;;;;;;8.73;5.03;;;;;;;3.08;86.46;99107.06;4992132;28;20709;-70
2021/01/08 00:07:32;;;;;;;14.10;5.47;;;;;;;3.00;87.00;99110.00;4992318;28;20743;-69
2021/01/08 00:09:59;;;;;;;8.73;4.20;;;;;;;2.98;87.55;99114.50;4991976;28;20235;-70
2021/01/08 00:12:29;;;;;;;11.15;5.07;;;;;;;3.02;86.85;99108.16;4991846;28;20231;-69
2021/01/08 00:14:55;;;;;;;8.48;4.22;;;;;;;3.08;86.11;99109.75;4992655;28;20238;-70
2021/01/08 00:17:22;;;;;;;7.32;3.88;;;;;;;3.03;86.92;99107.25;4992171;28;20273;-70
2021/01/08 00:19:48;;;;;;;8.98;4.72;;;;;;;2.94;87.49;99107.56;4991960;28;20207;-70
2021/01/08 00:22:14;;;;;;;11.18;5.13;;;;;;;2.99;87.59;99104.75;4991898;28;20209;-69
2021/01/08 00:24:42;;;;;;;13.55;5.45;;;;;;;3.13;86.54;99105.13;4991760;28;20250;-70
2021/01/08 00:27:08;;;;;;;9.27;4.53;;;;;;;3.11;85.87;99106.94;4991647;28;20215;-69
2021/01/08 00:29:35;;;;;;;15.07;6.07;;;;;;;3.00;86.68;99106.47;4991644;28;20215;-69
2021/01/08 00:32:01;;;;;;;7.75;3.22;;;;;;;2.99;87.33;99099.44;4991768;28;20249;-72
2021/01/08 00:34:27;;;;;;;8.73;5.00;;;;;;;3.10;86.55;99100.78;4991792;28;20215;-70
2021/01/08 00:36:55;;;;;;;5.07;3.65;;;;;;;2.85;87.30;99103.44;4991706;28;20708;-69
2021/01/08 00:39:23;;;;;;;6.55;4.32;;;;;;;2.66;88.96;99100.50;4991299;28;20211;-69
2021/01/08 00:41:50;;;;;;;7.30;3.80;;;;;;;2.63;89.97;99100.63;4991265;28;20339;-70
2021/01/08 00:44:17;;;;;;;11.40;4.03;;;;;;;2.62;91.09;99103.31;4991438;28;20246;-69
2021/01/08 00:46:47;;;;;;;3.58;3.17;;;;;;;2.70;90.60;99099.50;4991535;28;20210;-69
2021/01/08 00:49:13;;;;;;;7.70;4.47;;;;;;;2.65;91.00;99096.13;4990853;28;20206;-68
2021/01/08 00:51:40;;;;;;;8.10;4.32;;;;;;;2.64;91.52;99094.38;4991516;28;20231;-70
2021/01/08 00:54:07;;;;;;;6.53;3.65;;;;;;;2.75;89.97;99095.81;4991464;28;20225;-69
2021/01/08 00:56:33;;;;;;;7.72;5.05;;;;;;;2.79;90.09;99100.13;4991071;28;20239;-69
2021/01/08 00:59:01;;;;;;;8.73;4.00;;;;;;;2.61;91.06;99096.28;4991185;28;20218;-69
2021/01/08 01:01:28;;;;;;;7.63;4.47;;;;;;;2.59;91.00;99099.00;4991597;28;21133;-69
2021/01/08 01:03:54;;;;;;;6.18;2.95;;;;;;;2.51;91.29;99101.06;4991107;28;20249;-69
2021/01/08 01:06:24;;;;;;;7.82;5.85;;;;;;;2.59;91.90;99101.66;4990946;28;20231;-70
2021/01/08 01:08:51;;;;;;;8.52;5.45;;;;;;;2.55;91.48;99100.00;4990803;28;20296;-69
2021/01/08 01:11:18;;;;;;;10.32;4.47;;;;;;;2.62;91.69;99108.66;4990843;28;20302;-70
2021/01/08 01:13:46;;;;;;;12.18;4.97;;;;;;;2.59;91.05;99104.31;4991230;28;20222;-69
2021/01/08 01:16:14;;;;;;;6.88;4.07;;;;;;;2.64;91.53;99101.50;4990730;28;20207;-70
2021/01/08 01:18:40;;;;;;;8.88;4.18;;;;;;;2.71;91.85;99109.22;4990723;28;20565;-70
2021/01/08 01:21:06;;;;;;;9.65;5.13;;;;;;;2.63;91.54;99097.09;4991090;28;20235;-69
2021/01/08 01:23:32;;;;;;;4.85;3.33;;;;;;;2.74;89.78;99102.94;4990760;28;20211;-69
2021/01/08 01:25:59;;;;;;;7.22;4.45;;;;;;;2.62;90.34;99112.19;4991010;28;20239;-69
2021/01/08 01:28:25;;;;;;;7.20;3.17;;;;;;;2.72;90.64;99105.63;4991141;28;20314;-68
2021/01/08 01:30:51;;;;;;;8.35;4.70;;;;;;;2.67;91.00;99110.25;4990802;28;20198;-70
2021/01/08 01:33:19;;;;;;;5.25;2.90;;;;;;;2.85;88.86;99115.84;5027694;28;20259;-70
2021/01/08 01:35:45;;;;;;;13.32;3.95;;;;;;;2.84;89.15;99106.13;5052184;28;20331;-69
2021/01/08 01:38:12;;;;;;;8.95;4.47;;;;;;;2.84;89.60;99112.31;5051819;28;20254;-70
2021/01/08 01:40:38;;;;;;;4.32;3.90;;;;;;;3.00;89.33;99117.97;5052006;28;20679;-69
2021/01/08 01:43:04;;;;;;;5.20;3.58;;;;;;;3.02;88.19;99116.13;5051615;28;20224;-69
2021/01/08 01:45:30;;;;;;;6.75;4.32;;;;;;;2.84;88.97;99116.75;5051603;28;20193;-69
2021/01/08 01:47:57;;;;;;;4.43;3.58;;;;;;;2.80;89.89;99118.66;5051683;28;20215;-69
2021/01/08 01:50:25;;;;;;;6.35;3.70;;;;;;;2.89;89.86;99114.81;5051478;28;20251;-69
2021/01/08 01:52:51;;;;;;;11.27;5.70;;;;;;;3.19;87.66;99119.97;5051692;28;20221;-69
2021/01/08 01:55:18;;;;;;;5.65;3.78;;;;;;;3.12;86.87;99125.53;5051777;28;20213;-70
2021/01/08 01:57:45;;;;;;;7.35;3.90;;;;;;;3.15;86.95;99123.69;5051300;28;20226;-70
2021/01/08 02:00:12;;;;;;;6.53;2.20;;;;;;;3.12;86.87;99122.88;5051719;28;20216;-69
2021/01/08 02:02:43;;;;;;;7.85;4.05;;;;;;;2.97;87.41;99115.44;5051469;28;20205;-70
2021/01/08 02:05:12;;;;;;;9.05;4.13;;;;;;;3.03;87.62;99127.63;5052136;28;20937;-69
2021/01/08 02:07:48;;;;;;;9.23;5.13;;;;;;;2.96;88.64;99120.78;5051374;28;20532;-70
2021/01/08 02:10:15;;;;;;;7.07;4.43;;;;;;;3.10;87.81;99127.38;5051738;28;20570;-69
2021/01/08 02:12:44;;;;;;;6.45;3.53;;;;;;;2.92;87.52;99131.53;5051396;28;20231;-69
2021/01/08 02:15:11;;;;;;;4.95;2.92;;;;;;;2.82;89.23;99122.13;5051731;28;20209;-69
2021/01/08 02:17:38;;;;;;;5.10;2.72;;;;;;;2.84;89.21;99127.41;5051607;28;20670;-70
2021/01/08 02:20:08;;;;;;;9.07;3.42;;;;;;;2.86;89.13;99130.88;5051263;28;20259;-69
2021/01/08 02:22:43;;;;;;;6.75;4.07;;;;;;;3.00;89.36;99128.59;5051224;28;20205;-68
2021/01/08 02:25:13;;;;;;;4.20;2.80;;;;;;;2.90;88.26;99127.19;5051660;28;20727;-70
2021/01/08 02:27:45;;;;;;;1.83;1.30;;;;;;;2.81;88.88;99132.84;5051522;28;20613;-70
2021/01/08 02:30:13;;;;;;;7.93;3.47;;;;;;;2.87;89.41;99124.63;5051492;28;20654;-69
2021/01/08 02:32:40;;;;;;;4.90;3.30;;;;;;;2.85;89.69;99131.78;5051247;28;20231;-69
2021/01/08 02:35:08;;;;;;;4.53;3.83;;;;;;;2.74;90.40;99126.84;5051439;28;20250;-69
2021/01/08 02:37:41;;;;;;;4.55;3.25;;;;;;;2.87;89.57;99129.94;5051121;28;20204;-69
2021/01/08 02:40:09;;;;;;;4.18;2.70;;;;;;;2.86;90.71;99128.22;5051654;28;20216;-70
2021/01/08 02:42:39;;;;;;;4.18;3.20;;;;;;;2.99;89.84;99128.69;5051494;28;20559;-69
2021/01/08 02:45:06;;;;;;;5.88;3.33;;;;;;;2.82;89.35;99126.59;5051103;28;20192;-69
2021/01/08 02:47:33;;;;;;;8.07;3.42;;;;;;;2.80;90.36;99129.28;5050894;28;20201;-70
2021/01/08 02:49:59;;;;;;;4.20;2.60;;;;;;;2.71;90.51;99122.50;5051313;28;20625;-69
2021/01/08 02:52:28;;;;;;;8.10;3.38;;;;;;;2.69;91.12;99126.13;5050957;28;20268;-69
2021/01/08 02:54:57;;;;;;;5.88;2.83;;;;;;;2.62;91.52;99133.47;5050869;28;20199;-69
2021/01/08 02:57:26;;;;;;;5.35;3.08;;;;;;;2.57;92.40;99131.84;5050712;28;20236;-69
2021/01/08 02:59:55;;;;;;;3.55;3.25;;;;;;;2.63;92.61;99127.22;5050806;28;20201;-70
2021/01/08 03:02:22;;;;;;;5.10;2.50;;;;;;;2.70;91.81;99122.56;5050882;28;20193;-69
2021/01/08 03:04:49;;;;;;;3.53;2.40;;;;;;;2.59;92.66;99120.25;5050773;28;20258;-70
2021/01/08 03:07:20;;;;;;;6.25;2.67;;;;;;;2.45;92.92;99122.50;5050746;28;20209;-70
2021/01/08 03:09:46;;;;;;;2.88;2.22;;;;;;;2.47;92.85;99121.53;5051170;28;20692;-69
2021/01/08 03:12:15;;;;;;;9.23;3.08;;;;;;;2.41;93.58;99113.75;5052616;28;20225;-69
2021/01/08 03:14:42;;;;;;;7.25;3.05;;;;;;;2.42;93.53;99117.28;5054728;28;20209;-69
2021/01/08 03:17:09;;;;;;;4.15;2.90;;;;;;;2.42;93.69;99109.28;5054618;28;20259;-68
2021/01/08 03:19:35;;;;;;;3.50;2.67;;;;;;;2.44;94.04;99111.00;5054338;28;20259;-69
2021/01/08 03:22:02;;;;;;;5.68;3.15;;;;;;;2.57;93.03;99103.47;5054532;28;20674;-69
2021/01/08 03:24:28;;;;;;;4.88;3.25;;;;;;;2.64;93.36;99112.97;5054547;28;20219;-69
2021/01/08 03:26:54;;;;;;;2.22;2.03;;;;;;;2.54;92.94;99110.72;5054552;28;20636;-69
2021/01/08 03:29:36;;;;;;;4.72;2.83;;;;;;;2.60;93.71;99111.38;5054404;28;20201;-69
2021/01/08 03:32:02;;;;;;;5.85;3.08;;;;;;;2.72;92.38;99115.41;4992607;28;20223;-69
2021/01/08 03:34:29;;;;;;;3.58;2.38;;;;;;;2.62;91.59;99112.19;4993041;28;20203;-70
2021/01/08 03:36:56;;;;;;;7.97;3.72;;;;;;;2.44;92.76;99111.00;4992587;28;20670;-70
2021/01/08 03:39:22;;;;;;;6.32;2.97;;;;;;;2.47;92.41;99116.22;4992467;28;20216;-70
2021/01/08 03:41:48;;;;;;;8.60;4.03;;;;;;;2.51;93.02;99119.66;4992457;28;20199;-69
2021/01/08 03:44:14;;;;;;;4.82;3.00;;;;;;;2.56;93.00;99123.03;4992464;28;20307;-70
2021/01/08 03:46:41;;;;;;;5.90;2.92;;;;;;;2.55;91.50;99117.75;4992563;28;20249;-70
2021/01/08 03:49:07;;;;;;;3.17;2.10;;;;;;;2.59;91.75;99125.56;4992717;28;20330;-69
2021/01/08 03:51:35;;;;;;;4.13;3.45;;;;;;;2.52;92.12;99120.50;4992766;28;20986;-70
2021/01/08 03:54:01;;;;;;;6.53;3.25;;;;;;;2.47;92.00;99126.00;4992872;28;20261;-70
2021/01/08 03:56:27;;;;;;;4.35;3.95;;;;;;;2.56;92.56;99117.72;4992601;28;20290;-69
2021/01/08 03:58:53;;;;;;;5.15;3.15;;;;;;;2.43;91.67;99121.69;4992733;28;20207;-70
2021/01/08 04:01:20;;;;;;;5.43;2.67;;;;;;;2.51;91.84;99124.97;4992258;28;20355;-69
2021/01/08 04:03:46;;;;;;;9.40;3.97;;;;;;;2.41;91.62;99115.53;4992162;28;20243;-69
2021/01/08 04:06:12;;;;;;;5.22;3.10;;;;;;;2.54;92.28;99121.34;4992064;28;20207;-69
2021/01/08 04:08:39;;;;;;;6.43;2.90;;;;;;;2.48;91.28;99122.41;5004484;28;20217;-70
2021/01/08 04:11:06;;;;;;;3.50;2.65;;;;;;;2.36;91.85;99112.19;5051433;28;20205;-70
2021/01/08 04:13:32;;;;;;;4.93;2.42;;;;;;;2.41;92.02;99113.75;5053321;28;20201;-70
2021/01/08 04:15:58;;;;;;;4.15;3.38;;;;;;;2.27;92.39;99116.84;5053099;28;20215;-70
2021/01/08 04:18:24;;;;;;;3.95;3.47;;;;;;;2.40;92.84;99113.81;5053257;28;20212;-70
2021/01/08 04:20:51;;;;;;;6.43;3.50;;;;;;;2.47;91.86;99116.22;5053158;28;20199;-69
2021/01/08 04:23:17;;;;;;;3.85;2.30;;;;;;;2.25;92.28;99123.16;5052232;28;20235;-70
2021/01/08 04:25:44;;;;;;;6.43;4.05;;;;;;;2.18;94.02;99122.47;5053307;28;20277;-69
2021/01/08 04:28:10;;;;;;;4.30;3.85;;;;;;;2.23;93.02;99115.22;5053169;28;20219;-69
2021/01/08 04:30:37;;;;;;;5.75;2.75;;;;;;;2.22;92.06;99108.19;5053184;28;20253;-69
2021/01/08 04:33:03;;;;;;;1.80;1.63;;;;;;;2.15;91.82;99116.38;5052740;28;20236;-69
2021/01/08 04:35:29;;;;;;;8.13;3.72;;;;;;;2.18;92.58;99118.94;5052735;28;20250;-70
2021/01/08 04:37:56;;;;;;;8.98;4.13;;;;;;;2.27;92.20;99103.56;5052471;28;20201;-68
2021/01/08 04:40:22;;;;;;;4.47;2.50;;;;;;;2.28;91.54;99109.75;5053059;28;20220;-70
2021/01/08 04:42:50;;;;;;;4.65;2.40;;;;;;;2.34;91.60;99108.69;5052516;28;20201;-70
2021/01/08 04:45:16;;;;;;;5.07;3.10;;;;;;;2.35;91.03;99108.63;5052983;28;20230;-69
2021/01/08 04:47:45;;;;;;;7.40;4.03;;;;;;;2.29;90.59;99109.72;5052442;28;20240;-70
2021/01/08 04:50:12;;;;;;;5.95;3.65;;;;;;;2.38;90.63;99107.69;5052802;28;20259;-69
2021/01/08 04:52:38;;;;;;;6.20;3.35;;;;;;;2.35;90.64;99115.72;5052561;28;20229;-70
2021/01/08 04:55:06;;;;;;;5.05;3.38;;;;;;;2.29;90.41;99112.38;5052470;28;20205;-70
2021/01/08 04:57:36;;;;;;;2.13;1.77;;;;;;;2.26;90.36;99115.13;5052129;28;20233;-70
2021/01/08 05:00:05;;;;;;;4.38;1.85;;;;;;;2.26;89.91;99112.47;5052309;28;20296;-70
2021/01/08 05:02:32;;;;;;;2.38;2.03;;;;;;;2.25;89.62;99112.53;5052256;28;20201;-68
2021/01/08 05:04:59;;;;;;;4.20;3.05;;;;;;;2.23;89.86;99115.22;5052492;28;20569;-69
2021/01/08 05:07:26;;;;;;;9.60;4.53;;;;;;;2.28;89.51;99117.72;5052132;28;20212;-69
2021/01/08 05:10:01;;;;;;;5.72;3.30;;;;;;;2.26;89.05;99119.56;5052264;28;20201;-70
2021/01/08 05:12:38;;;;;;;6.97;4.18;;;;;;;2.36;88.83;99128.97;5052023;28;20300;-68
2021/01/08 05:15:17;;;;;;;3.63;2.78;;;;;;;2.03;90.19;99136.22;5052397;28;20270;-69
2021/01/08 05:17:47;;;;;;;3.22;2.88;;;;;;;2.19;89.74;99128.63;5051912;28;20205;-71
2021/01/08 05:20:14;;;;;;;6.38;3.22;;;;;;;2.27;89.03;99134.59;5051855;28;20215;-69
2021/01/08 05:22:41;;;;;;;5.45;3.17;;;;;;;2.22;88.71;99139.19;5051906;28;20259;-70
2021/01/08 05:25:11;;;;;;;7.25;3.58;;;;;;;2.33;88.42;99134.41;5051776;28;20193;-69
2021/01/08 05:27:39;;;;;;;5.85;2.60;;;;;;;2.44;87.99;99139.34;5051942;28;20205;-69
2021/01/08 05:30:28;;;;;;;5.00;3.60;;;;;;;2.52;86.66;99139.97;5051691;28;20200;-69
2021/01/08 05:32:58;;;;;;;5.97;2.95;;;;;;;2.45;86.61;99136.66;5051681;28;20232;-69
2021/01/08 05:35:33;;;;;;;5.80;3.42;;;;;;;2.43;86.60;99142.94;5051842;28;20656;-69
2021/01/08 05:38:07;;;;;;;3.72;3.10;;;;;;;2.27;86.64;99137.25;5051869;28;20208;-68
2021/01/08 05:40:43;;;;;;;6.07;3.72;;;;;;;2.25;87.06;99150.56;5051728;28;20205;-69
2021/01/08 05:43:10;;;;;;;5.30;3.30;;;;;;;2.47;86.91;99133.97;5051710;28;20193;-70
2021/01/08 05:45:37;;;;;;;3.45;1.98;;;;;;;2.24;87.29;99150.63;5052064;28;20192;-69
2021/01/08 05:48:05;;;;;;;3.13;1.98;;;;;;;2.03;87.96;99149.50;5051909;28;20189;-69
2021/01/08 05:50:33;;;;;;;7.43;3.30;;;;;;;2.11;87.59;99147.50;5052081;28;20292;-69
2021/01/08 05:53:04;;;;;;;5.32;3.08;;;;;;;2.26;87.39;99151.44;5051334;28;20228;-69
2021/01/08 05:55:34;;;;;;;4.70;3.00;;;;;;;2.21;86.66;99148.91;5051551;28;20193;-69
2021/01/08 05:58:05;;;;;;;6.03;3.35;;;;;;;2.24;86.75;99150.63;5051085;28;20228;-69
2021/01/08 06:00:31;;;;;;;6.53;3.25;;;;;;;2.03;86.75;99150.34;5051515;28;20220;-70
2021/01/08 06:02:59;;;;;;;9.07;3.30;;;;;;;2.12;86.88;99145.69;5051564;28;20205;-69
2021/01/08 06:05:29;;;;;;;7.72;3.63;;;;;;;2.22;86.19;99155.13;5051266;28;20205;-69
2021/01/08 06:08:02;;;;;;;3.38;2.90;;;;;;;2.19;85.66;99152.53;5051308;28;20251;-69
2021/01/08 06:10:32;;;;;;;4.10;2.80;;;;;;;2.08;86.59;99150.22;5051279;28;20244;-69
2021/01/08 06:13:01;;;;;;;4.88;3.67;;;;;;;2.20;85.78;99151.66;5051693;28;20213;-69
2021/01/08 06:15:29;;;;;;;2.88;2.55;;;;;;;2.22;85.34;99149.81;5051637;28;20271;-69
2021/01/08 06:17:56;;;;;;;5.03;3.75;;;;;;;2.17;84.95;99152.63;5051228;28;20248;-70
2021/01/08 06:20:28;;;;;;;3.33;3.03;;;;;;;2.01;85.62;99161.94;5051018;28;20205;-70
2021/01/08 06:22:54;;;;;;;2.95;1.63;;;;;;;1.74;87.10;99153.03;5051170;28;20220;-69
2021/01/08 06:25:22;;;;;;;4.22;2.92;;;;;;;1.74;87.74;99151.25;5051401;28;20216;-69
2021/01/08 06:27:54;;;;;;;7.53;4.22;;;;;;;1.77;87.06;99160.91;5050977;28;20196;-69
2021/01/08 06:30:28;;;;;;;6.53;3.25;;;;;;;2.03;86.34;99163.63;5051318;28;20548;-69
2021/01/08 06:33:03;;;;;;;3.38;1.70;;;;;;;2.13;84.92;99166.91;5051676;28;20256;-71
2021/01/08 06:35:34;;;;;;;3.20;2.55;;;;;;;2.14;83.96;99158.00;5050816;28;20615;-69
2021/01/08 06:38:12;;;;;;;7.53;4.80;;;;;;;2.17;84.37;99165.00;5050841;28;20186;-70
2021/01/08 06:40:41;;;;;;;6.18;3.55;;;;;;;2.24;83.92;99167.44;5051337;28;20220;-68
2021/01/08 06:43:21;;;;;;;7.72;4.80;;;;;;;2.33;83.25;99173.38;5051129;28;20296;-69
2021/01/08 06:45:53;;;;;;;6.65;2.53;;;;;;;1.85;84.66;99185.44;5051040;28;20208;-70
2021/01/08 06:48:23;;;;;;;3.13;2.85;;;;;;;1.85;84.49;99177.47;5054928;28;20271;-69
2021/01/08 06:51:03;;;;;;;5.10;3.88;;;;;;;1.95;84.47;99165.66;5054653;28;20205;-70
2021/01/08 06:53:33;;;;;;;4.50;2.80;;;;;;;1.94;83.70;99177.19;5054415;28;20259;-70
2021/01/08 06:56:05;;;;;;;3.40;3.10;;;;;;;1.77;84.62;99177.69;5054468;28;21120;-69
2021/01/08 06:58:36;;;;;;;6.85;3.58;;;;;;;2.04;83.91;99172.50;5054499;28;20193;-70
2021/01/08 07:01:04;;;;;;;5.03;3.88;;;;;;;2.15;82.63;99182.78;5054929;28;20570;-70
2021/01/08 07:03:30;;;;;;;7.25;3.17;;;;;;;2.13;82.51;99179.31;5054764;28;20270;-68
2021/01/08 07:05:57;;;;;;;3.72;2.72;;;;;;;2.11;82.34;99191.78;5054214;28;20210;-70
2021/01/08 07:08:25;;;;;;;7.97;4.10;;;;;;;2.13;82.13;99184.63;5054509;28;20205;-70
2021/01/08 07:10:54;;;;;;;6.47;4.57;;;;;;;2.22;81.17;99195.84;5054262;28;20194;-70
2021/01/08 07:13:52;;;;;;;7.28;4.70;;;;;;;2.25;81.00;99201.03;5054120;28;20278;-70
2021/01/08 07:16:25;;;;;;;4.95;3.60;;;;;;;2.12;81.54;99210.28;5054328;28;20197;-70
2021/01/08 07:18:51;;;;;;;6.00;3.88;;;;;;;2.11;81.28;99215.69;5054011;28;20193;-70
2021/01/08 07:21:31;;;;;;;5.53;3.58;;;;;;;2.00;81.43;99216.84;5054558;28;20593;-70
2021/01/08 07:24:01;;;;;;;5.35;3.80;;;;;;;1.87;81.82;99221.63;5053861;28;20201;-70
2021/01/08 07:26:30;;;;;;;7.65;2.90;;;;;;;1.95;81.93;99220.56;5054133;28;20232;-70
2021/01/08 07:28:57;;;;;;;3.05;2.75;;;;;;;2.07;80.99;99228.16;5054347;28;20591;-70
2021/01/08 07:31:31;;;;;;;5.10;4.53;;;;;;;2.02;81.41;99224.78;5053858;28;20600;-70
2021/01/08 07:34:01;;;;;;;8.07;3.83;;;;;;;2.13;81.23;99228.00;5053837;28;20296;-69
2021/01/08 07:36:29;;;;;;;4.53;3.40;;;;;;;2.13;80.63;99229.78;5054206;28;20667;-69
2021/01/08 07:38:56;;;;;;;6.47;3.85;;;;;;;1.86;80.93;99225.22;5054114;28;20202;-69
2021/01/08 07:41:37;;;;;;;4.28;3.00;;;;;;;1.86;82.34;99227.00;5054191;28;20192;-71
2021/01/08 07:44:26;;;;;;;8.73;3.80;;;;;;;1.98;81.99;99237.25;5053592;28;20295;-70
2021/01/08 07:46:52;;;;;;;6.60;3.40;;;;;;;2.00;80.57;99238.09;5053394;28;20208;-70
2021/01/08 07:49:33;;;;;;;5.00;3.47;;;;;;;1.91;80.99;99245.47;5053475;28;20195;-69
2021/01/08 07:52:00;;;;;;;3.30;2.53;;;;;;;1.79;81.56;99244.91;5054074;28;20213;-69
2021/01/08 07:54:55;;;;;;;4.40;3.55;;;;;;;1.73;81.98;99252.16;5053610;28;20204;-69
2021/01/08 07:57:21;;;;;;;2.75;2.38;;;;;;;1.84;81.67;99255.38;5053056;28;20323;-69
2021/01/08 07:59:47;;;;;;;4.57;3.28;;;;;;;2.00;81.61;99253.16;5053265;28;20277;-70
2021/01/08 08:02:13;;;;;;;4.68;3.00;;;;;;;2.02;81.34;99264.63;5053285;28;20205;-71
2021/01/08 08:04:39;;;;;;;4.40;3.70;;;;;;;2.03;81.01;99269.00;5053581;28;20193;-70
2021/01/08 08:07:11;;;;;;;5.55;3.03;;;;;;;2.13;81.17;99267.84;5053113;28;20258;-69
2021/01/08 08:09:37;;;;;;;6.15;3.67;;;;;;;2.31;80.32;99279.72;5053650;28;20243;-70
2021/01/08 08:12:31;;;;;;;7.65;4.50;;;;;;;2.38;79.88;99273.28;5052904;28;20282;-70
2021/01/08 08:15:16;;;;;;;6.20;3.92;;;;;;;2.36;78.82;99276.91;5052898;28;20259;-69
2021/01/08 08:18:33;;;;;;;7.53;3.45;;;;;;;2.36;79.45;99276.91;5053692;28;20202;-69
2021/01/08 08:21:33;;;;;;;5.05;3.33;;;;;;;2.44;78.68;99275.78;5053185;28;20205;-68
2021/01/08 08:24:03;;;;;;;2.95;2.15;;;;;;;1.95;80.50;99279.84;5053387;28;20217;-69
2021/01/08 08:27:00;;;;;;;5.32;2.97;;;;;;;2.09;80.14;99276.78;5052951;28;20263;-69
2021/01/08 08:29:40;;;;;;;3.35;1.98;;;;;;;2.05;79.63;99283.09;5044620;28;20217;-69
2021/01/08 08:32:35;;;;;;;10.23;3.20;;;;;;;2.03;79.21;99284.94;5053280;28;20456;-69
2021/01/08 08:35:22;;;;;;;6.68;3.95;;;;;;;1.99;79.81;99294.78;5052833;28;20636;-69
2021/01/08 08:37:59;;;;;;;4.88;3.50;;;;;;;1.95;79.25;99279.84;5052478;28;20201;-70
2021/01/08 08:50:23;;;;;;;9.25;4.18;;;;;;;2.48;78.09;99297.78;5052294;28;20292;-68
2021/01/08 09:00:10;;;;;;;;;;;;;;;;;;;;;
2021/01/08 09:06:21;;;;;;;6.32;2.75;;;;;;;2.08;78.92;99299.84;4964990;28;21011;-68
2021/01/08 09:09:32;;;;;;;7.53;4.35;;;;;;;2.15;79.24;99300.53;4990317;28;20219;-69
2021/01/08 09:16:12;;;;;;;;;;;;;;;;;;;;;
2021/01/08 09:19:29;;;;;;;8.75;5.05;;;;;;;2.36;81.39;99301.69;4987109;28;20215;-70
2021/01/08 09:22:13;;;;;;;8.90;4.10;;;;;;;2.45;78.84;99297.91;4976094;28;20588;-68
2021/01/08 09:25:02;;;;;;;5.70;3.17;;;;;;;2.47;77.71;99307.56;4990348;28;20270;-68
2021/01/08 09:28:13;;;;;;;5.35;4.38;;;;;;;2.57;77.94;99301.97;4990565;28;20330;-68
2021/01/08 09:34:35;;;;;;;3.53;3.20;;;;;;;2.53;77.72;99305.63;4987565;28;20673;-67
2021/01/08 09:37:31;;;;;;;6.53;2.65;;;;;;;2.37;77.41;99305.22;4994840;28;20211;-67
2021/01/08 09:40:22;;;;;;;10.80;5.55;;;;;;;2.44;78.02;99309.41;5051860;28;20270;-68
2021/01/08 09:43:37;;;;;;;10.85;3.97;;;;;;;2.46;77.37;99320.88;5051185;28;20208;-68
2021/01/08 09:47:20;;;;;;;;;;;;;;;;;;;;;
2021/01/08 09:50:14;;;;;;;3.67;3.28;;;;;;;2.38;78.00;99317.59;5051243;28;20315;-68
2021/01/08 09:56:19;;;;;;;2.72;2.47;;;;;;;2.37;76.91;99319.34;5049374;28;20209;-68
2021/01/08 09:59:40;;;;;;;4.18;2.80;;;;;;;2.54;76.75;99321.53;5052036;28;20543;-69
2021/01/08 10:02:56;;;;;;;6.93;3.83;;;;;;;2.68;76.88;99327.28;5051063;28;20674;-64
2021/01/08 10:05:38;;;;;;;11.02;4.65;;;;;;;2.83;75.68;99328.63;5023677;28;20213;-64
2021/01/08 10:08:17;;;;;;;7.90;4.30;;;;;;;2.79;75.84;99328.78;5051571;28;20186;-63
2021/01/08 10:10:45;;;;;;;4.90;3.83;;;;;;;3.05;74.97;99330.59;5051451;28;20181;-63
2021/01/08 10:13:25;;;;;;;8.32;5.82;;;;;;;2.93;75.30;99329.22;5050986;28;20698;-64
2021/01/08 10:16:13;;;;;;;9.65;4.78;;;;;;;3.21;73.33;99331.88;5050984;28;20240;-64
2021/01/08 10:18:45;;;;;;;7.95;5.15;;;;;;;3.01;73.66;99324.53;5051174;28;20236;-64
2021/01/08 10:21:29;;;;;;;7.80;4.50;;;;;;;2.89;74.11;99331.09;5051716;28;20216;-64
2021/01/08 10:23:57;;;;;;;8.77;4.00;;;;;;;2.94;74.43;99336.28;5055516;28;20664;-64
2021/01/08 10:26:33;;;;;;;11.45;5.22;;;;;;;2.73;75.34;99343.09;5055343;28;20213;-64
2021/01/08 10:29:00;;;;;;;7.50;4.80;;;;;;;2.75;74.92;99340.41;5055621;28;20266;-64
2021/01/08 10:31:42;;;;;;;6.10;4.50;;;;;;;2.93;74.24;99331.88;5054810;28;20213;-65
2021/01/08 10:37:08;;;;;;;5.00;4.43;;;;;;;2.76;74.96;99336.81;5034531;28;20211;-64
2021/01/08 10:39:36;;;;;;;8.55;4.57;;;;;;;3.00;74.50;99321.91;5054761;28;20209;-64
2021/01/08 10:42:22;;;;;;;5.65;3.80;;;;;;;2.83;74.11;99333.94;5054723;28;20196;-65
2021/01/08 10:44:58;;;;;;;6.38;2.38;;;;;;;2.63;74.66;99331.88;5054520;28;20288;-63
2021/01/08 10:47:43;;;;;;;6.95;4.50;;;;;;;2.58;75.74;99331.16;5055185;28;20594;-64
2021/01/08 10:53:07;;;;;;;5.07;4.68;;;;;;;2.57;74.95;99326.75;5052967;28;20259;-66
2021/01/08 10:55:55;;;;;;;4.05;3.10;;;;;;;2.47;75.50;99319.97;5054319;28;20205;-64
2021/01/08 10:58:36;;;;;;;3.80;3.40;;;;;;;2.47;76.26;99317.31;5054713;28;20631;-64
2021/01/08 11:04:01;;;;;;;9.73;5.00;;;;;;;2.74;75.34;99320.03;5054271;28;20193;-63
2021/01/08 11:06:44;;;;;;;6.78;4.28;;;;;;;2.52;75.77;99312.72;5054334;28;20181;-64
2021/01/08 11:09:38;;;;;;;2.88;2.60;;;;;;;2.62;75.20;99316.88;5054468;28;20658;-64
2021/01/08 11:12:09;;;;;;;7.38;3.85;;;;;;;2.82;74.58;99307.41;5054322;28;20213;-65
2021/01/08 11:14:43;;;;;;;9.70;3.80;;;;;;;3.09;74.38;99306.50;5054590;28;20549;-64
2021/01/08 11:17:14;;;;;;;8.52;4.28;;;;;;;3.13;73.37;99302.84;5054173;28;20690;-65
2021/01/08 11:19:44;;;;;;;11.40;5.80;;;;;;;3.31;73.13;99301.38;5054436;28;20185;-63
2021/01/08 11:25:03;;;;;;;6.70;4.38;;;;;;;3.37;71.88;99310.06;5033970;28;20615;-64
2021/01/08 11:27:40;;;;;;;5.28;3.03;;;;;;;3.30;72.26;99296.97;5054332;28;20209;-65
2021/01/08 11:30:12;;;;;;;7.30;3.92;;;;;;;3.20;73.16;99306.16;5053686;28;20216;-63
2021/01/08 11:32:41;;;;;;;4.43;4.03;;;;;;;3.17;74.58;99303.63;5053642;28;20209;-64
2021/01/08 11:35:32;;;;;;;6.93;4.65;;;;;;;3.36;73.68;99295.88;5054056;28;20270;-65
2021/01/08 11:38:18;;;;;;;7.82;4.28;;;;;;;3.17;73.35;99295.63;5053564;28;20628;-65
2021/01/08 11:41:03;;;;;;;6.65;3.85;;;;;;;2.73;75.38;99300.56;5054206;28;20208;-63
2021/01/08 11:47:02;;;;;;;;;;;;;;;;;;;;;
2021/01/08 11:49:37;;;;;;;8.13;6.30;;;;;;;2.84;75.89;99278.97;5053729;28;20190;-64
2021/01/08 11:52:12;;;;;;;6.35;4.50;;;;;;;3.02;75.46;99288.16;5053425;28;20217;-65
2021/01/08 11:55:05;;;;;;;7.72;4.97;;;;;;;3.33;74.03;99283.56;5053275;28;20220;-65
2021/01/08 11:57:54;;;;;;;4.50;3.67;;;;;;;3.30;73.46;99288.09;5053248;28;20238;-65
2021/01/08 12:00:29;;;;;;;1.65;1.55;;;;;;;2.80;74.80;99291.47;5053363;28;20212;-64
2021/01/08 12:03:16;;;;;;;11.82;4.82;;;;;;;2.83;75.30;99288.75;5053761;28;20524;-65
2021/01/08 12:05:43;;;;;;;5.60;3.78;;;;;;;2.87;75.76;99295.72;5052867;28;20205;-65
2021/01/08 12:08:17;;;;;;;3.28;2.97;;;;;;;2.66;76.12;99297.22;5052979;28;20255;-65
2021/01/08 12:10:45;;;;;;;3.50;2.90;;;;;;;2.45;77.48;99301.41;5052858;28;20236;-64
2021/01/08 12:13:11;;;;;;;8.52;3.22;;;;;;;2.50;78.31;99301.28;5052951;28;20215;-65
2021/01/08 12:15:38;;;;;;;9.00;4.35;;;;;;;2.68;77.67;99299.84;5052997;28;20216;-65
2021/01/08 12:18:07;;;;;;;8.82;3.92;;;;;;;2.33;77.97;99301.78;5052963;28;20561;-65
2021/01/08 12:20:36;;;;;;;2.42;2.03;;;;;;;2.21;79.56;99296.81;5052874;28;20224;-64
2021/01/08 12:23:04;;;;;;;9.73;4.15;;;;;;;2.34;80.34;99302.66;5052877;28;20201;-65
2021/01/08 12:25:34;;;;;;;4.75;3.92;;;;;;;2.19;79.82;99301.31;5052677;28;20201;-64
2021/01/08 12:28:03;;;;;;;7.57;4.10;;;;;;;2.30;80.66;99302.72;5052808;28;20197;-65
2021/01/08 12:30:37;;;;;;;11.15;5.55;;;;;;;2.48;80.55;99313.75;5052893;28;20197;-64
2021/01/08 12:33:05;;;;;;;6.78;4.72;;;;;;;2.55;80.24;99309.97;5052391;28;20286;-65
2021/01/08 12:35:42;;;;;;;7.13;3.25;;;;;;;2.22;80.92;99299.44;5052819;28;20201;-65
2021/01/08 12:38:09;;;;;;;3.45;2.80;;;;;;;2.33;82.09;99308.88;5052777;28;20212;-65
2021/01/08 12:40:35;;;;;;;3.97;3.55;;;;;;;2.05;82.56;99304.34;5052616;28;20213;-63
2021/01/08 12:43:15;;;;;;;2.03;1.88;;;;;;;1.95;83.14;99303.75;5052797;28;20202;-65
2021/01/08 12:45:41;;;;;;;5.95;4.70;;;;;;;2.02;83.66;99302.66;5052133;28;20725;-64
2021/01/08 12:48:09;;;;;;;7.57;4.70;;;;;;;2.35;83.75;99305.25;5052851;28;20216;-64
2021/01/08 12:50:41;;;;;;;4.10;2.70;;;;;;;2.06;84.19;99304.31;5052999;28;20262;-65
2021/01/08 12:53:10;;;;;;;10.50;3.85;;;;;;;2.29;84.58;99306.31;5052294;28;20225;-64
2021/01/08 12:55:37;;;;;;;6.68;3.70;;;;;;;2.26;85.17;99305.50;5052473;28;20209;-65
2021/01/08 12:58:12;;;;;;;10.35;4.72;;;;;;;2.46;84.51;99304.94;5052339;28;20552;-64